sensor_id;sensor_type;location;lat;lon;timestamp;temperature;humidity
4356;DHT22;2191;51.482;7.408;2022-07-31T00:01:24;26.00;99.90
4356;DHT22;2191;51.482;7.408;2022-07-31T00:03:52;26.00;99.90
4356;DHT22;2191;51.482;7.408;2022-07-31T00:06:25;26.00;99.90
4356;DHT22;2191;51.482;7.408;2022-07-31T00:08:54;25.90;99.90
4356;DHT22;2191;51.482;7.408;2022-07-31T00:11:24;25.90;99.90
4356;DHT22;2191;51.482;7.408;2022-07-31T00:14:03;25.90;99.90
4356;DHT22;2191;51.482;7.408;2022-07-31T00:16:31;25.90;99.90
4356;DHT22;2191;51.482;7.408;2022-07-31T00:19:01;25.90;99.90
4356;DHT22;2191;51.482;7.408;2022-07-31T00:21:32;25.80;99.90
4356;DHT22;2191;51.482;7.408;2022-07-31T00:24:00;25.80;99.90
4356;DHT22;2191;51.482;7.408;2022-07-31T00:26:28;25.80;99.90
4356;DHT22;2191;51.482;7.408;2022-07-31T00:28:56;25.80;99.90
4356;DHT22;2191;51.482;7.408;2022-07-31T00:31:28;25.80;99.90
4356;DHT22;2191;51.482;7.408;2022-07-31T00:34:04;25.80;99.90
4356;DHT22;2191;51.482;7.408;2022-07-31T00:36:32;25.80;99.90
4356;DHT22;2191;51.482;7.408;2022-07-31T00:39:08;25.70;99.90
4356;DHT22;2191;51.482;7.408;2022-07-31T00:41:37;25.70;99.90
4356;DHT22;2191;51.482;7.408;2022-07-31T00:44:05;25.70;99.90
4356;DHT22;2191;51.482;7.408;2022-07-31T00:46:39;25.60;99.90
4356;DHT22;2191;51.482;7.408;2022-07-31T00:49:08;25.60;99.90
4356;DHT22;2191;51.482;7.408;2022-07-31T00:51:36;25.60;99.90
4356;DHT22;2191;51.482;7.408;2022-07-31T00:54:05;25.60;99.90
4356;DHT22;2191;51.482;7.408;2022-07-31T00:56:34;25.60;99.90
4356;DHT22;2191;51.482;7.408;2022-07-31T00:59:02;25.60;99.90
4356;DHT22;2191;51.482;7.408;2022-07-31T01:01:31;25.60;99.90
4356;DHT22;2191;51.482;7.408;2022-07-31T01:04:03;25.60;99.90
4356;DHT22;2191;51.482;7.408;2022-07-31T01:06:32;25.60;99.90
4356;DHT22;2191;51.482;7.408;2022-07-31T01:09:01;25.50;99.90
4356;DHT22;2191;51.482;7.408;2022-07-31T01:11:35;25.50;99.90
4356;DHT22;2191;51.482;7.408;2022-07-31T01:14:05;25.50;99.90
4356;DHT22;2191;51.482;7.408;2022-07-31T01:16:37;25.50;99.90
4356;DHT22;2191;51.482;7.408;2022-07-31T01:19:21;25.50;99.90
4356;DHT22;2191;51.482;7.408;2022-07-31T01:22:24;25.40;99.90
4356;DHT22;2191;51.482;7.408;2022-07-31T01:25:06;25.40;99.90
4356;DHT22;2191;51.482;7.408;2022-07-31T01:28:01;25.40;99.90
4356;DHT22;2191;51.482;7.408;2022-07-31T01:30:40;25.40;99.90
4356;DHT22;2191;51.482;7.408;2022-07-31T01:33:14;25.30;99.90
4356;DHT22;2191;51.482;7.408;2022-07-31T01:35:50;25.30;99.90
4356;DHT22;2191;51.482;7.408;2022-07-31T01:38:28;25.30;99.90
4356;DHT22;2191;51.482;7.408;2022-07-31T01:41:10;25.20;99.90
4356;DHT22;2191;51.482;7.408;2022-07-31T01:43:46;25.20;99.90
4356;DHT22;2191;51.482;7.408;2022-07-31T01:46:20;25.20;99.90
4356;DHT22;2191;51.482;7.408;2022-07-31T01:48:52;25.30;99.90
4356;DHT22;2191;51.482;7.408;2022-07-31T01:51:23;25.20;99.90
4356;DHT22;2191;51.482;7.408;2022-07-31T01:53:55;25.10;99.90
4356;DHT22;2191;51.482;7.408;2022-07-31T01:56:24;25.10;99.90
4356;DHT22;2191;51.482;7.408;2022-07-31T01:58:53;25.10;99.90
4356;DHT22;2191;51.482;7.408;2022-07-31T02:01:24;25.10;99.90
4356;DHT22;2191;51.482;7.408;2022-07-31T02:03:54;25.20;99.90
4356;DHT22;2191;51.482;7.408;2022-07-31T02:06:22;25.10;99.90
4356;DHT22;2191;51.482;7.408;2022-07-31T02:08:53;25.20;99.90
4356;DHT22;2191;51.482;7.408;2022-07-31T02:11:22;25.20;99.90
4356;DHT22;2191;51.482;7.408;2022-07-31T02:13:51;25.10;99.90
4356;DHT22;2191;51.482;7.408;2022-07-31T02:16:20;25.10;99.90
4356;DHT22;2191;51.482;7.408;2022-07-31T02:18:53;25.10;99.90
4356;DHT22;2191;51.482;7.408;2022-07-31T02:21:29;25.10;99.90
4356;DHT22;2191;51.482;7.408;2022-07-31T02:23:57;25.10;99.90
4356;DHT22;2191;51.482;7.408;2022-07-31T02:26:26;25.00;99.90
4356;DHT22;2191;51.482;7.408;2022-07-31T02:28:57;25.10;99.90
4356;DHT22;2191;51.482;7.408;2022-07-31T02:31:30;25.10;99.90
4356;DHT22;2191;51.482;7.408;2022-07-31T02:34:03;25.10;99.90
4356;DHT22;2191;51.482;7.408;2022-07-31T02:36:32;25.00;99.90
4356;DHT22;2191;51.482;7.408;2022-07-31T02:39:01;25.00;99.90
4356;DHT22;2191;51.482;7.408;2022-07-31T02:41:33;25.00;99.90
4356;DHT22;2191;51.482;7.408;2022-07-31T02:44:04;24.90;99.90
4356;DHT22;2191;51.482;7.408;2022-07-31T02:46:35;24.90;99.90
4356;DHT22;2191;51.482;7.408;2022-07-31T02:49:05;24.90;99.90
4356;DHT22;2191;51.482;7.408;2022-07-31T02:51:36;24.80;99.90
4356;DHT22;2191;51.482;7.408;2022-07-31T02:54:09;25.20;99.90
4356;DHT22;2191;51.482;7.408;2022-07-31T02:56:37;24.90;99.90
4356;DHT22;2191;51.482;7.408;2022-07-31T02:59:06;24.90;99.90
4356;DHT22;2191;51.482;7.408;2022-07-31T03:01:37;24.80;99.90
4356;DHT22;2191;51.482;7.408;2022-07-31T03:04:06;24.80;99.90
4356;DHT22;2191;51.482;7.408;2022-07-31T03:06:40;24.80;99.90
4356;DHT22;2191;51.482;7.408;2022-07-31T03:09:09;24.80;99.90
4356;DHT22;2191;51.482;7.408;2022-07-31T03:11:37;24.80;99.90
4356;DHT22;2191;51.482;7.408;2022-07-31T03:14:06;24.80;99.90
4356;DHT22;2191;51.482;7.408;2022-07-31T03:16:38;24.80;99.90
4356;DHT22;2191;51.482;7.408;2022-07-31T03:19:14;24.80;99.90
4356;DHT22;2191;51.482;7.408;2022-07-31T03:21:45;24.80;99.90
4356;DHT22;2191;51.482;7.408;2022-07-31T03:24:14;24.80;99.90
4356;DHT22;2191;51.482;7.408;2022-07-31T03:26:44;24.80;99.90
4356;DHT22;2191;51.482;7.408;2022-07-31T03:29:13;24.80;99.90
4356;DHT22;2191;51.482;7.408;2022-07-31T03:32:00;24.80;99.90
4356;DHT22;2191;51.482;7.408;2022-07-31T03:34:30;24.80;99.90
4356;DHT22;2191;51.482;7.408;2022-07-31T03:36:58;24.80;99.90
4356;DHT22;2191;51.482;7.408;2022-07-31T03:39:26;24.80;99.90
4356;DHT22;2191;51.482;7.408;2022-07-31T03:41:57;24.80;99.90
4356;DHT22;2191;51.482;7.408;2022-07-31T03:44:30;24.80;99.90
4356;DHT22;2191;51.482;7.408;2022-07-31T03:46:59;24.80;99.90
4356;DHT22;2191;51.482;7.408;2022-07-31T03:49:31;24.80;99.90
4356;DHT22;2191;51.482;7.408;2022-07-31T03:52:00;24.80;99.90
4356;DHT22;2191;51.482;7.408;2022-07-31T03:54:34;24.80;99.90
4356;DHT22;2191;51.482;7.408;2022-07-31T03:57:02;24.80;99.90
4356;DHT22;2191;51.482;7.408;2022-07-31T03:59:33;24.80;99.90
4356;DHT22;2191;51.482;7.408;2022-07-31T04:02:12;24.80;99.90
4356;DHT22;2191;51.482;7.408;2022-07-31T04:04:50;24.80;99.90
4356;DHT22;2191;51.482;7.408;2022-07-31T04:07:21;24.80;99.90
4356;DHT22;2191;51.482;7.408;2022-07-31T04:09:54;24.80;99.90
4356;DHT22;2191;51.482;7.408;2022-07-31T04:12:21;24.70;99.90
4356;DHT22;2191;51.482;7.408;2022-07-31T04:14:51;24.80;99.90
4356;DHT22;2191;51.482;7.408;2022-07-31T04:17:19;24.70;99.90
4356;DHT22;2191;51.482;7.408;2022-07-31T04:19:55;24.80;99.90
4356;DHT22;2191;51.482;7.408;2022-07-31T04:22:23;24.80;99.90
4356;DHT22;2191;51.482;7.408;2022-07-31T04:24:51;24.80;99.90
4356;DHT22;2191;51.482;7.408;2022-07-31T04:27:21;24.80;99.90
4356;DHT22;2191;51.482;7.408;2022-07-31T04:29:52;24.70;99.90
4356;DHT22;2191;51.482;7.408;2022-07-31T04:32:23;24.60;99.90
4356;DHT22;2191;51.482;7.408;2022-07-31T04:34:54;24.60;99.90
4356;DHT22;2191;51.482;7.408;2022-07-31T04:37:23;24.60;99.90
4356;DHT22;2191;51.482;7.408;2022-07-31T04:39:51;24.40;99.90
4356;DHT22;2191;51.482;7.408;2022-07-31T04:42:26;24.30;99.90
4356;DHT22;2191;51.482;7.408;2022-07-31T04:44:58;24.30;99.90
4356;DHT22;2191;51.482;7.408;2022-07-31T04:47:26;24.20;99.90
4356;DHT22;2191;51.482;7.408;2022-07-31T04:50:04;24.00;99.90
4356;DHT22;2191;51.482;7.408;2022-07-31T04:52:37;24.10;99.90
4356;DHT22;2191;51.482;7.408;2022-07-31T04:55:06;24.00;99.90
4356;DHT22;2191;51.482;7.408;2022-07-31T04:57:34;24.00;99.90
4356;DHT22;2191;51.482;7.408;2022-07-31T05:00:04;24.00;99.90
4356;DHT22;2191;51.482;7.408;2022-07-31T05:02:32;23.80;99.90
4356;DHT22;2191;51.482;7.408;2022-07-31T05:05:01;23.70;99.90
4356;DHT22;2191;51.482;7.408;2022-07-31T05:07:29;23.20;99.90
4356;DHT22;2191;51.482;7.408;2022-07-31T05:09:58;23.20;99.90
4356;DHT22;2191;51.482;7.408;2022-07-31T05:12:28;23.40;99.90
4356;DHT22;2191;51.482;7.408;2022-07-31T05:15:00;23.50;99.90
4356;DHT22;2191;51.482;7.408;2022-07-31T05:17:28;23.60;99.90
4356;DHT22;2191;51.482;7.408;2022-07-31T05:19:56;23.60;99.90
4356;DHT22;2191;51.482;7.408;2022-07-31T05:22:30;23.40;99.90
4356;DHT22;2191;51.482;7.408;2022-07-31T05:25:02;23.50;99.90
4356;DHT22;2191;51.482;7.408;2022-07-31T05:27:30;23.70;99.90
4356;DHT22;2191;51.482;7.408;2022-07-31T05:30:05;23.80;99.90
4356;DHT22;2191;51.482;7.408;2022-07-31T05:32:41;24.00;99.90
4356;DHT22;2191;51.482;7.408;2022-07-31T05:35:11;23.90;99.90
4356;DHT22;2191;51.482;7.408;2022-07-31T05:37:44;23.80;99.90
4356;DHT22;2191;51.482;7.408;2022-07-31T05:40:12;23.70;99.90
4356;DHT22;2191;51.482;7.408;2022-07-31T05:42:42;23.70;99.90
4356;DHT22;2191;51.482;7.408;2022-07-31T05:45:16;23.80;99.90
4356;DHT22;2191;51.482;7.408;2022-07-31T05:47:44;24.00;99.90
4356;DHT22;2191;51.482;7.408;2022-07-31T05:50:12;24.00;99.90
4356;DHT22;2191;51.482;7.408;2022-07-31T05:52:49;24.10;99.90
4356;DHT22;2191;51.482;7.408;2022-07-31T05:55:20;24.00;99.90
4356;DHT22;2191;51.482;7.408;2022-07-31T05:57:48;23.80;99.90
4356;DHT22;2191;51.482;7.408;2022-07-31T06:00:16;23.70;99.90
4356;DHT22;2191;51.482;7.408;2022-07-31T06:02:44;23.80;99.90
4356;DHT22;2191;51.482;7.408;2022-07-31T06:05:14;23.90;99.90
4356;DHT22;2191;51.482;7.408;2022-07-31T06:07:42;23.90;99.90
4356;DHT22;2191;51.482;7.408;2022-07-31T06:10:21;23.90;99.90
4356;DHT22;2191;51.482;7.408;2022-07-31T06:12:49;23.60;99.90
4356;DHT22;2191;51.482;7.408;2022-07-31T06:15:17;23.60;99.90
4356;DHT22;2191;51.482;7.408;2022-07-31T06:17:48;23.50;99.90
4356;DHT22;2191;51.482;7.408;2022-07-31T06:20:19;23.50;99.90
4356;DHT22;2191;51.482;7.408;2022-07-31T06:22:46;23.60;99.90
4356;DHT22;2191;51.482;7.408;2022-07-31T06:25:14;23.50;99.90
4356;DHT22;2191;51.482;7.408;2022-07-31T06:27:52;23.60;99.90
4356;DHT22;2191;51.482;7.408;2022-07-31T06:30:30;23.80;99.90
4356;DHT22;2191;51.482;7.408;2022-07-31T06:33:01;23.70;99.90
4356;DHT22;2191;51.482;7.408;2022-07-31T06:35:34;23.30;99.90
4356;DHT22;2191;51.482;7.408;2022-07-31T06:38:04;23.30;99.90
4356;DHT22;2191;51.482;7.408;2022-07-31T06:40:32;23.20;99.90
4356;DHT22;2191;51.482;7.408;2022-07-31T06:43:01;23.40;99.90
4356;DHT22;2191;51.482;7.408;2022-07-31T06:45:32;23.40;99.90
4356;DHT22;2191;51.482;7.408;2022-07-31T06:48:18;23.40;99.90
4356;DHT22;2191;51.482;7.408;2022-07-31T06:50:46;23.20;99.90
4356;DHT22;2191;51.482;7.408;2022-07-31T06:53:18;23.50;99.90
4356;DHT22;2191;51.482;7.408;2022-07-31T06:55:45;23.70;99.90
4356;DHT22;2191;51.482;7.408;2022-07-31T06:58:20;24.00;99.90
4356;DHT22;2191;51.482;7.408;2022-07-31T07:00:48;24.00;99.90
4356;DHT22;2191;51.482;7.408;2022-07-31T07:03:16;24.10;99.90
4356;DHT22;2191;51.482;7.408;2022-07-31T07:05:44;24.20;99.90
4356;DHT22;2191;51.482;7.408;2022-07-31T07:08:12;24.30;99.90
4356;DHT22;2191;51.482;7.408;2022-07-31T07:10:43;24.40;99.90
4356;DHT22;2191;51.482;7.408;2022-07-31T07:13:11;24.00;99.90
4356;DHT22;2191;51.482;7.408;2022-07-31T07:15:50;24.10;99.90
4356;DHT22;2191;51.482;7.408;2022-07-31T07:18:18;24.20;99.90
4356;DHT22;2191;51.482;7.408;2022-07-31T07:20:47;23.80;99.90
4356;DHT22;2191;51.482;7.408;2022-07-31T07:23:16;24.00;99.90
4356;DHT22;2191;51.482;7.408;2022-07-31T07:25:46;24.30;99.90
4356;DHT22;2191;51.482;7.408;2022-07-31T07:28:17;24.00;99.90
4356;DHT22;2191;51.482;7.408;2022-07-31T07:30:58;24.20;99.90
4356;DHT22;2191;51.482;7.408;2022-07-31T07:33:26;24.20;99.90
4356;DHT22;2191;51.482;7.408;2022-07-31T07:36:07;23.90;99.90
4356;DHT22;2191;51.482;7.408;2022-07-31T07:38:53;23.60;99.90
4356;DHT22;2191;51.482;7.408;2022-07-31T07:41:22;23.70;99.90
4356;DHT22;2191;51.482;7.408;2022-07-31T07:43:50;23.80;99.90
4356;DHT22;2191;51.482;7.408;2022-07-31T07:46:22;24.00;99.90
4356;DHT22;2191;51.482;7.408;2022-07-31T07:48:53;24.10;99.90
4356;DHT22;2191;51.482;7.408;2022-07-31T07:51:23;24.20;99.90
4356;DHT22;2191;51.482;7.408;2022-07-31T07:53:51;24.20;99.90
4356;DHT22;2191;51.482;7.408;2022-07-31T07:56:21;24.10;99.90
4356;DHT22;2191;51.482;7.408;2022-07-31T07:58:52;24.00;99.90
4356;DHT22;2191;51.482;7.408;2022-07-31T08:01:22;24.20;99.90
4356;DHT22;2191;51.482;7.408;2022-07-31T08:03:59;24.20;99.90
4356;DHT22;2191;51.482;7.408;2022-07-31T08:06:27;24.20;99.90
4356;DHT22;2191;51.482;7.408;2022-07-31T08:08:58;24.20;99.90
4356;DHT22;2191;51.482;7.408;2022-07-31T08:11:28;24.20;99.90
4356;DHT22;2191;51.482;7.408;2022-07-31T08:13:56;24.30;99.90
4356;DHT22;2191;51.482;7.408;2022-07-31T08:16:27;24.10;99.90
4356;DHT22;2191;51.482;7.408;2022-07-31T08:18:58;24.00;99.90
4356;DHT22;2191;51.482;7.408;2022-07-31T08:21:26;24.00;99.90
4356;DHT22;2191;51.482;7.408;2022-07-31T08:23:54;24.00;99.90
4356;DHT22;2191;51.482;7.408;2022-07-31T08:26:22;24.10;99.90
4356;DHT22;2191;51.482;7.408;2022-07-31T08:28:53;24.10;99.90
4356;DHT22;2191;51.482;7.408;2022-07-31T08:31:21;24.00;99.90
4356;DHT22;2191;51.482;7.408;2022-07-31T08:33:53;24.00;99.90
4356;DHT22;2191;51.482;7.408;2022-07-31T08:36:21;24.10;99.90
4356;DHT22;2191;51.482;7.408;2022-07-31T08:38:50;24.00;99.90
4356;DHT22;2191;51.482;7.408;2022-07-31T08:41:18;24.00;99.90
4356;DHT22;2191;51.482;7.408;2022-07-31T08:43:48;23.80;99.90
4356;DHT22;2191;51.482;7.408;2022-07-31T08:46:31;23.90;99.90
4356;DHT22;2191;51.482;7.408;2022-07-31T08:49:02;23.70;99.90
4356;DHT22;2191;51.482;7.408;2022-07-31T08:51:35;23.80;99.90
4356;DHT22;2191;51.482;7.408;2022-07-31T08:54:23;23.90;99.90
4356;DHT22;2191;51.482;7.408;2022-07-31T08:56:54;23.80;99.90
4356;DHT22;2191;51.482;7.408;2022-07-31T08:59:22;23.70;99.90
4356;DHT22;2191;51.482;7.408;2022-07-31T09:01:50;24.00;99.90
4356;DHT22;2191;51.482;7.408;2022-07-31T09:04:27;23.80;99.90
4356;DHT22;2191;51.482;7.408;2022-07-31T09:06:55;23.80;99.90
4356;DHT22;2191;51.482;7.408;2022-07-31T09:09:25;23.80;99.90
4356;DHT22;2191;51.482;7.408;2022-07-31T09:12:13;23.60;99.90
4356;DHT22;2191;51.482;7.408;2022-07-31T09:14:59;23.60;99.90
4356;DHT22;2191;51.482;7.408;2022-07-31T09:17:31;23.80;99.90
4356;DHT22;2191;51.482;7.408;2022-07-31T09:20:02;23.80;99.90
4356;DHT22;2191;51.482;7.408;2022-07-31T09:22:31;23.80;99.90
4356;DHT22;2191;51.482;7.408;2022-07-31T09:25:07;23.50;99.90
4356;DHT22;2191;51.482;7.408;2022-07-31T09:27:38;23.80;99.90
4356;DHT22;2191;51.482;7.408;2022-07-31T09:30:09;23.90;99.90
4356;DHT22;2191;51.482;7.408;2022-07-31T09:32:37;23.60;99.90
4356;DHT22;2191;51.482;7.408;2022-07-31T09:35:08;23.70;99.90
4356;DHT22;2191;51.482;7.408;2022-07-31T09:37:37;23.30;99.90
4356;DHT22;2191;51.482;7.408;2022-07-31T09:40:06;23.20;99.90
4356;DHT22;2191;51.482;7.408;2022-07-31T09:42:40;23.30;99.90
4356;DHT22;2191;51.482;7.408;2022-07-31T09:45:22;23.60;99.90
4356;DHT22;2191;51.482;7.408;2022-07-31T09:48:07;23.80;99.90
4356;DHT22;2191;51.482;7.408;2022-07-31T09:50:52;23.90;99.90
4356;DHT22;2191;51.482;7.408;2022-07-31T09:53:40;23.80;99.90
4356;DHT22;2191;51.482;7.408;2022-07-31T09:56:11;23.80;99.90
4356;DHT22;2191;51.482;7.408;2022-07-31T09:58:43;23.90;99.90
4356;DHT22;2191;51.482;7.408;2022-07-31T10:01:12;23.80;99.90
4356;DHT22;2191;51.482;7.408;2022-07-31T10:03:40;23.80;99.90
4356;DHT22;2191;51.482;7.408;2022-07-31T10:06:11;23.80;99.90
4356;DHT22;2191;51.482;7.408;2022-07-31T10:08:54;24.00;99.90
4356;DHT22;2191;51.482;7.408;2022-07-31T10:11:25;24.00;99.90
4356;DHT22;2191;51.482;7.408;2022-07-31T10:13:58;24.10;99.90
4356;DHT22;2191;51.482;7.408;2022-07-31T10:16:30;24.00;99.90
4356;DHT22;2191;51.482;7.408;2022-07-31T10:18:59;24.10;99.90
4356;DHT22;2191;51.482;7.408;2022-07-31T10:21:35;24.00;99.90
4356;DHT22;2191;51.482;7.408;2022-07-31T10:24:05;24.00;99.90
4356;DHT22;2191;51.482;7.408;2022-07-31T10:26:34;24.00;99.90
4356;DHT22;2191;51.482;7.408;2022-07-31T10:29:22;24.20;99.90
4356;DHT22;2191;51.482;7.408;2022-07-31T10:31:50;24.40;99.90
4356;DHT22;2191;51.482;7.408;2022-07-31T10:34:20;24.40;99.90
4356;DHT22;2191;51.482;7.408;2022-07-31T10:36:58;24.40;99.90
4356;DHT22;2191;51.482;7.408;2022-07-31T10:39:34;24.20;99.90
4356;DHT22;2191;51.482;7.408;2022-07-31T10:42:14;24.10;99.90
4356;DHT22;2191;51.482;7.408;2022-07-31T10:44:50;24.10;99.90
4356;DHT22;2191;51.482;7.408;2022-07-31T10:47:21;24.20;99.90
4356;DHT22;2191;51.482;7.408;2022-07-31T10:49:54;24.00;99.90
4356;DHT22;2191;51.482;7.408;2022-07-31T10:52:37;24.00;99.90
4356;DHT22;2191;51.482;7.408;2022-07-31T10:55:14;24.10;99.90
4356;DHT22;2191;51.482;7.408;2022-07-31T10:57:42;24.10;99.90
4356;DHT22;2191;51.482;7.408;2022-07-31T11:00:26;24.30;99.90
4356;DHT22;2191;51.482;7.408;2022-07-31T11:02:56;24.60;99.90
4356;DHT22;2191;51.482;7.408;2022-07-31T11:05:33;24.60;99.90
4356;DHT22;2191;51.482;7.408;2022-07-31T11:08:22;24.80;99.90
4356;DHT22;2191;51.482;7.408;2022-07-31T11:10:54;24.80;99.90
4356;DHT22;2191;51.482;7.408;2022-07-31T11:13:23;24.70;99.90
4356;DHT22;2191;51.482;7.408;2022-07-31T11:16:04;24.80;99.90
4356;DHT22;2191;51.482;7.408;2022-07-31T11:18:32;24.80;99.90
4356;DHT22;2191;51.482;7.408;2022-07-31T11:21:01;24.90;99.90
4356;DHT22;2191;51.482;7.408;2022-07-31T11:23:51;25.00;99.90
4356;DHT22;2191;51.482;7.408;2022-07-31T11:26:29;24.70;99.90
4356;DHT22;2191;51.482;7.408;2022-07-31T11:29:08;24.80;99.90
4356;DHT22;2191;51.482;7.408;2022-07-31T11:32:14;25.10;99.90
4356;DHT22;2191;51.482;7.408;2022-07-31T11:34:45;25.40;99.90
4356;DHT22;2191;51.482;7.408;2022-07-31T11:37:16;25.40;99.90
4356;DHT22;2191;51.482;7.408;2022-07-31T11:39:47;25.40;99.90
4356;DHT22;2191;51.482;7.408;2022-07-31T11:42:25;25.60;99.90
4356;DHT22;2191;51.482;7.408;2022-07-31T11:45:01;25.50;99.90
4356;DHT22;2191;51.482;7.408;2022-07-31T11:47:38;25.40;99.90
4356;DHT22;2191;51.482;7.408;2022-07-31T11:50:26;25.50;99.90
4356;DHT22;2191;51.482;7.408;2022-07-31T11:53:02;25.40;99.90
4356;DHT22;2191;51.482;7.408;2022-07-31T11:55:48;25.30;99.90
4356;DHT22;2191;51.482;7.408;2022-07-31T11:58:17;25.10;99.90
4356;DHT22;2191;51.482;7.408;2022-07-31T12:00:50;25.10;99.90
4356;DHT22;2191;51.482;7.408;2022-07-31T12:03:20;25.10;99.90
4356;DHT22;2191;51.482;7.408;2022-07-31T12:05:50;24.90;99.90
4356;DHT22;2191;51.482;7.408;2022-07-31T12:08:19;24.80;99.90
4356;DHT22;2191;51.482;7.408;2022-07-31T12:10:51;24.90;99.90
4356;DHT22;2191;51.482;7.408;2022-07-31T12:13:22;25.10;99.90
4356;DHT22;2191;51.482;7.408;2022-07-31T12:16:01;25.20;99.90
4356;DHT22;2191;51.482;7.408;2022-07-31T12:18:45;25.30;99.90
4356;DHT22;2191;51.482;7.408;2022-07-31T12:21:13;25.30;99.90
4356;DHT22;2191;51.482;7.408;2022-07-31T12:23:51;25.20;99.90
4356;DHT22;2191;51.482;7.408;2022-07-31T12:26:25;25.40;99.90
4356;DHT22;2191;51.482;7.408;2022-07-31T12:28:57;25.40;99.90
4356;DHT22;2191;51.482;7.408;2022-07-31T12:31:26;25.50;99.90
4356;DHT22;2191;51.482;7.408;2022-07-31T12:33:54;25.70;99.90
4356;DHT22;2191;51.482;7.408;2022-07-31T12:36:22;25.80;99.90
4356;DHT22;2191;51.482;7.408;2022-07-31T12:39:01;25.70;99.90
4356;DHT22;2191;51.482;7.408;2022-07-31T12:41:40;25.40;99.90
4356;DHT22;2191;51.482;7.408;2022-07-31T12:44:13;25.40;99.90
4356;DHT22;2191;51.482;7.408;2022-07-31T12:46:47;25.20;99.90
4356;DHT22;2191;51.482;7.408;2022-07-31T12:49:16;25.20;99.90
4356;DHT22;2191;51.482;7.408;2022-07-31T12:51:46;25.20;99.90
4356;DHT22;2191;51.482;7.408;2022-07-31T12:54:20;25.40;99.90
4356;DHT22;2191;51.482;7.408;2022-07-31T12:56:49;25.50;99.90
4356;DHT22;2191;51.482;7.408;2022-07-31T12:59:20;25.70;99.90
4356;DHT22;2191;51.482;7.408;2022-07-31T13:01:51;25.80;99.90
4356;DHT22;2191;51.482;7.408;2022-07-31T13:04:19;26.00;99.90
4356;DHT22;2191;51.482;7.408;2022-07-31T13:06:47;25.90;99.90
4356;DHT22;2191;51.482;7.408;2022-07-31T13:09:18;26.00;99.90
4356;DHT22;2191;51.482;7.408;2022-07-31T13:11:57;26.10;99.90
4356;DHT22;2191;51.482;7.408;2022-07-31T13:14:32;26.30;99.90
4356;DHT22;2191;51.482;7.408;2022-07-31T13:17:03;26.20;99.90
4356;DHT22;2191;51.482;7.408;2022-07-31T13:19:32;26.00;99.90
4356;DHT22;2191;51.482;7.408;2022-07-31T13:21:59;25.90;99.90
4356;DHT22;2191;51.482;7.408;2022-07-31T13:24:30;26.10;99.90
4356;DHT22;2191;51.482;7.408;2022-07-31T13:27:02;26.10;99.90
4356;DHT22;2191;51.482;7.408;2022-07-31T13:29:31;26.00;99.90
4356;DHT22;2191;51.482;7.408;2022-07-31T13:32:04;25.80;99.90
4356;DHT22;2191;51.482;7.408;2022-07-31T13:34:34;25.70;99.90
4356;DHT22;2191;51.482;7.408;2022-07-31T13:37:04;25.80;99.90
4356;DHT22;2191;51.482;7.408;2022-07-31T13:39:32;25.80;99.90
4356;DHT22;2191;51.482;7.408;2022-07-31T13:42:02;25.80;99.90
4356;DHT22;2191;51.482;7.408;2022-07-31T13:44:43;25.80;99.90
4356;DHT22;2191;51.482;7.408;2022-07-31T13:47:13;25.70;99.90
4356;DHT22;2191;51.482;7.408;2022-07-31T13:49:41;25.70;99.90
4356;DHT22;2191;51.482;7.408;2022-07-31T13:52:09;25.80;99.90
4356;DHT22;2191;51.482;7.408;2022-07-31T13:54:37;25.90;99.90
4356;DHT22;2191;51.482;7.408;2022-07-31T13:57:06;26.00;99.90
4356;DHT22;2191;51.482;7.408;2022-07-31T13:59:34;26.10;99.90
4356;DHT22;2191;51.482;7.408;2022-07-31T14:02:02;26.20;99.90
4356;DHT22;2191;51.482;7.408;2022-07-31T14:04:44;26.20;99.90
4356;DHT22;2191;51.482;7.408;2022-07-31T14:07:14;26.30;99.90
4356;DHT22;2191;51.482;7.408;2022-07-31T14:09:48;26.50;99.90
4356;DHT22;2191;51.482;7.408;2022-07-31T14:12:22;26.60;99.90
4356;DHT22;2191;51.482;7.408;2022-07-31T14:14:53;26.60;99.90
4356;DHT22;2191;51.482;7.408;2022-07-31T14:17:24;26.50;99.90
4356;DHT22;2191;51.482;7.408;2022-07-31T14:19:52;26.30;99.90
4356;DHT22;2191;51.482;7.408;2022-07-31T14:22:20;26.20;99.90
4356;DHT22;2191;51.482;7.408;2022-07-31T14:24:49;26.20;99.90
4356;DHT22;2191;51.482;7.408;2022-07-31T14:27:26;26.30;99.90
4356;DHT22;2191;51.482;7.408;2022-07-31T14:29:54;26.30;99.90
4356;DHT22;2191;51.482;7.408;2022-07-31T14:32:25;26.50;99.90
4356;DHT22;2191;51.482;7.408;2022-07-31T14:34:55;26.30;99.90
4356;DHT22;2191;51.482;7.408;2022-07-31T14:37:26;26.30;99.90
4356;DHT22;2191;51.482;7.408;2022-07-31T14:39:57;26.30;99.90
4356;DHT22;2191;51.482;7.408;2022-07-31T14:42:28;26.30;99.90
4356;DHT22;2191;51.482;7.408;2022-07-31T14:45:02;26.30;99.90
4356;DHT22;2191;51.482;7.408;2022-07-31T14:47:32;26.20;99.90
4356;DHT22;2191;51.482;7.408;2022-07-31T14:50:03;26.30;99.90
4356;DHT22;2191;51.482;7.408;2022-07-31T14:52:37;26.30;99.90
4356;DHT22;2191;51.482;7.408;2022-07-31T14:55:06;26.60;99.90
4356;DHT22;2191;51.482;7.408;2022-07-31T14:57:35;26.80;99.90
4356;DHT22;2191;51.482;7.408;2022-07-31T15:00:04;26.90;99.90
4356;DHT22;2191;51.482;7.408;2022-07-31T15:02:38;27.00;99.90
4356;DHT22;2191;51.482;7.408;2022-07-31T15:05:12;26.90;99.90
4356;DHT22;2191;51.482;7.408;2022-07-31T15:08:00;26.80;99.90
4356;DHT22;2191;51.482;7.408;2022-07-31T15:10:30;26.80;99.90
4356;DHT22;2191;51.482;7.408;2022-07-31T15:13:01;26.80;99.90
4356;DHT22;2191;51.482;7.408;2022-07-31T15:15:29;26.60;99.90
4356;DHT22;2191;51.482;7.408;2022-07-31T15:17:59;26.50;99.90
4356;DHT22;2191;51.482;7.408;2022-07-31T15:20:27;26.70;99.90
4356;DHT22;2191;51.482;7.408;2022-07-31T15:22:59;26.70;99.90
4356;DHT22;2191;51.482;7.408;2022-07-31T15:25:27;26.70;99.90
4356;DHT22;2191;51.482;7.408;2022-07-31T15:27:55;26.70;99.90
4356;DHT22;2191;51.482;7.408;2022-07-31T15:30:29;26.90;99.90
4356;DHT22;2191;51.482;7.408;2022-07-31T15:32:57;26.90;99.90
4356;DHT22;2191;51.482;7.408;2022-07-31T15:35:25;26.90;99.90
4356;DHT22;2191;51.482;7.408;2022-07-31T15:37:53;27.00;99.90
4356;DHT22;2191;51.482;7.408;2022-07-31T15:40:24;27.10;99.90
4356;DHT22;2191;51.482;7.408;2022-07-31T15:42:54;27.30;99.90
4356;DHT22;2191;51.482;7.408;2022-07-31T15:45:22;27.50;99.90
4356;DHT22;2191;51.482;7.408;2022-07-31T15:47:52;27.50;99.90
4356;DHT22;2191;51.482;7.408;2022-07-31T15:50:20;27.50;99.90
4356;DHT22;2191;51.482;7.408;2022-07-31T15:52:50;27.50;99.90
4356;DHT22;2191;51.482;7.408;2022-07-31T15:55:20;27.40;99.90
4356;DHT22;2191;51.482;7.408;2022-07-31T15:57:48;27.00;99.90
4356;DHT22;2191;51.482;7.408;2022-07-31T16:00:17;26.80;99.90
4356;DHT22;2191;51.482;7.408;2022-07-31T16:02:45;26.70;99.90
4356;DHT22;2191;51.482;7.408;2022-07-31T16:05:17;26.60;99.90
4356;DHT22;2191;51.482;7.408;2022-07-31T16:08:02;26.60;99.90
4356;DHT22;2191;51.482;7.408;2022-07-31T16:10:52;26.50;99.90
4356;DHT22;2191;51.482;7.408;2022-07-31T16:13:23;26.10;99.90
4356;DHT22;2191;51.482;7.408;2022-07-31T16:15:51;25.90;99.90
4356;DHT22;2191;51.482;7.408;2022-07-31T16:18:19;25.70;99.90
4356;DHT22;2191;51.482;7.408;2022-07-31T16:20:50;25.50;99.90
4356;DHT22;2191;51.482;7.408;2022-07-31T16:23:22;25.50;99.90
4356;DHT22;2191;51.482;7.408;2022-07-31T16:25:51;25.60;99.90
4356;DHT22;2191;51.482;7.408;2022-07-31T16:28:19;25.60;99.90
4356;DHT22;2191;51.482;7.408;2022-07-31T16:30:47;25.80;99.90
4356;DHT22;2191;51.482;7.408;2022-07-31T16:33:15;25.80;99.90